createdAt,value
2023-11-03T00:00:12.063Z,10.06
2023-11-03T00:02:44.490Z,9.94
2023-11-03T00:05:13.983Z,10.08
2023-11-03T00:07:42.615Z,10.17
2023-11-03T00:10:11.042Z,10.00
2023-11-03T00:12:39.869Z,9.84
2023-11-03T00:15:11.280Z,9.75
2023-11-03T00:17:38.812Z,9.94
2023-11-03T00:20:07.755Z,10.08
2023-11-03T00:22:35.392Z,10.07
2023-11-03T00:25:03.903Z,9.93
2023-11-03T00:27:31.861Z,9.85
2023-11-03T00:29:59.324Z,10.03
2023-11-03T00:32:26.829Z,10.11
2023-11-03T00:34:54.322Z,9.94
2023-11-03T00:37:21.793Z,9.77
2023-11-03T00:39:49.323Z,9.87
2023-11-03T00:42:16.674Z,9.97
2023-11-03T00:44:44.408Z,9.87
2023-11-03T00:47:11.849Z,9.70
2023-11-03T00:49:39.333Z,9.78
2023-11-03T00:52:10.371Z,9.91
2023-11-03T00:54:37.856Z,9.88
2023-11-03T00:57:05.416Z,9.71
2023-11-03T00:59:32.900Z,9.57
2023-11-03T01:02:00.270Z,9.70
2023-11-03T01:04:27.688Z,9.79
2023-11-03T01:06:56.469Z,9.72
2023-11-03T01:09:26.140Z,9.59
2023-11-03T01:11:53.881Z,9.72
2023-11-03T01:14:21.314Z,9.84
2023-11-03T01:16:50.776Z,9.69
2023-11-03T01:19:22.624Z,9.53
2023-11-03T01:21:50.196Z,9.67
2023-11-03T01:24:17.618Z,9.80
2023-11-03T01:26:45.077Z,9.73
2023-11-03T01:29:13.862Z,9.53
2023-11-03T01:31:41.946Z,9.42
2023-11-03T01:34:09.349Z,9.51
2023-11-03T01:36:37.119Z,9.63
2023-11-03T01:39:06.935Z,9.71
2023-11-03T01:41:34.459Z,9.56
2023-11-03T01:44:04.572Z,9.42
2023-11-03T01:46:31.904Z,9.52
2023-11-03T01:48:59.391Z,9.55
2023-11-03T01:51:27.110Z,9.42
2023-11-03T01:53:54.579Z,9.37
2023-11-03T01:56:22.073Z,9.50
2023-11-03T01:58:49.493Z,9.51
2023-11-03T02:01:16.862Z,9.37
2023-11-03T02:03:44.431Z,9.38
2023-11-03T02:06:12.015Z,9.44
2023-11-03T02:08:39.441Z,9.33
2023-11-03T02:11:07.827Z,9.20
2023-11-03T02:13:35.701Z,9.29
2023-11-03T02:16:04.364Z,9.33
2023-11-03T02:18:31.948Z,9.21
2023-11-03T02:20:59.784Z,9.21
2023-11-03T02:23:27.258Z,9.27
2023-11-03T02:25:54.671Z,9.27
2023-11-03T02:28:22.585Z,9.12
2023-11-03T02:30:50.039Z,9.06
2023-11-03T02:33:17.473Z,9.13
2023-11-03T02:35:45.182Z,9.20
2023-11-03T02:38:17.383Z,9.20
2023-11-03T02:40:46.637Z,9.04
2023-11-03T02:43:14.081Z,8.93
2023-11-03T02:45:41.483Z,9.01
2023-11-03T02:48:09.765Z,9.13
2023-11-03T02:50:37.938Z,9.16
2023-11-03T02:53:05.447Z,9.03
2023-11-03T02:55:32.957Z,8.94
2023-11-03T02:58:00.330Z,9.07
2023-11-03T03:00:28.025Z,9.16
2023-11-03T03:02:55.774Z,9.05
2023-11-03T03:05:23.798Z,8.94
2023-11-03T03:07:51.415Z,9.09
2023-11-03T03:10:18.849Z,9.18
2023-11-03T03:12:48.850Z,9.07
2023-11-03T03:15:16.749Z,8.94
2023-11-03T03:17:44.653Z,9.07
2023-11-03T03:20:12.333Z,9.16
2023-11-03T03:22:39.938Z,9.02
2023-11-03T03:25:09.036Z,8.89
2023-11-03T03:27:36.733Z,8.97
2023-11-03T03:30:04.959Z,9.06
2023-11-03T03:32:32.622Z,8.98
2023-11-03T03:35:00.526Z,8.88
2023-11-03T03:37:27.967Z,8.98
2023-11-03T03:39:55.806Z,9.05
2023-11-03T03:42:25.432Z,8.94
2023-11-03T03:44:52.822Z,8.84
2023-11-03T03:47:20.269Z,8.95
2023-11-03T03:49:47.644Z,9.04
2023-11-03T03:52:15.236Z,8.99
2023-11-03T03:54:43.015Z,8.88
2023-11-03T03:57:10.547Z,8.98
2023-11-03T03:59:38.372Z,9.07
2023-11-03T04:02:05.755Z,8.94
2023-11-03T04:04:33.599Z,8.83
2023-11-03T04:07:01.402Z,8.97
2023-11-03T04:09:29.180Z,9.10
2023-11-03T04:11:56.532Z,9.00
2023-11-03T04:14:24.461Z,8.94
2023-11-03T04:16:53.128Z,9.07
2023-11-03T04:19:20.612Z,9.14
2023-11-03T04:21:48.067Z,9.07
2023-11-03T04:24:15.461Z,8.94
2023-11-03T04:26:42.882Z,9.02
2023-11-03T04:29:10.337Z,9.09
2023-11-03T04:31:37.657Z,9.02
2023-11-03T04:34:05.430Z,8.90
2023-11-03T04:36:32.942Z,8.97
2023-11-03T04:39:00.291Z,9.09
2023-11-03T04:41:27.648Z,9.16
2023-11-03T04:43:55.110Z,9.10
2023-11-03T04:46:23.708Z,8.97
2023-11-03T04:48:51.264Z,9.07
2023-11-03T04:51:18.858Z,9.19
2023-11-03T04:53:46.248Z,9.24
2023-11-03T04:56:13.803Z,9.10
2023-11-03T04:58:41.263Z,9.05
2023-11-03T05:01:08.656Z,9.22
2023-11-03T05:03:36.219Z,9.32
2023-11-03T05:06:04.420Z,9.35
2023-11-03T05:08:31.760Z,9.28
2023-11-03T05:10:59.072Z,9.16
2023-11-03T05:13:26.753Z,9.27
2023-11-03T05:15:54.219Z,9.40
2023-11-03T05:18:21.832Z,9.28
2023-11-03T05:20:49.375Z,9.12
2023-11-03T05:23:16.702Z,9.22
2023-11-03T05:25:44.027Z,9.37
2023-11-03T05:28:11.629Z,9.45
2023-11-03T05:30:39.069Z,9.39
2023-11-03T05:33:06.621Z,9.27
2023-11-03T05:35:34.080Z,9.36
2023-11-03T05:38:01.688Z,9.46
2023-11-03T05:40:29.630Z,9.55
2023-11-03T05:42:57.079Z,9.52
2023-11-03T05:45:24.623Z,9.39
2023-11-03T05:47:52.342Z,9.47
2023-11-03T05:50:19.708Z,9.57
2023-11-03T05:52:47.076Z,9.64
2023-11-03T05:55:14.561Z,9.63
2023-11-03T05:57:42.114Z,9.54
2023-11-03T06:00:11.141Z,9.61
2023-11-03T06:02:38.745Z,9.72
2023-11-03T06:05:08.219Z,9.66
2023-11-03T06:07:38.415Z,9.63
2023-11-03T06:10:06.701Z,9.81
2023-11-03T06:12:34.427Z,10.00
2023-11-03T06:15:01.769Z,9.96
2023-11-03T06:17:29.622Z,9.90
2023-11-03T06:19:57.088Z,10.12
2023-11-03T06:22:24.516Z,10.26
2023-11-03T06:24:52.046Z,10.18
2023-11-03T06:27:19.502Z,10.18
2023-11-03T06:29:47.186Z,10.42
2023-11-03T06:32:14.708Z,10.48
2023-11-03T06:34:42.084Z,10.34
2023-11-03T06:37:09.878Z,10.38
2023-11-03T06:39:37.221Z,10.53
2023-11-03T06:42:07.289Z,10.55
2023-11-03T06:44:34.653Z,10.41
2023-11-03T06:47:01.974Z,10.46
2023-11-03T06:49:29.634Z,10.65
2023-11-03T06:51:57.278Z,10.60
2023-11-03T06:54:25.051Z,10.49
2023-11-03T06:56:52.869Z,10.68
2023-11-03T06:59:20.535Z,10.81
2023-11-03T07:01:47.888Z,10.69
2023-11-03T07:04:15.656Z,10.54
2023-11-03T07:06:43.340Z,10.66
2023-11-03T07:09:11.331Z,10.81
2023-11-03T07:11:38.870Z,10.71
2023-11-03T07:14:06.616Z,10.60
2023-11-03T07:16:34.588Z,10.80
2023-11-03T07:19:01.989Z,10.92
2023-11-03T07:23:49.362Z,10.47
2023-11-03T07:26:17.451Z,10.85
2023-11-03T07:28:46.895Z,10.98
2023-11-03T07:31:14.789Z,10.92
2023-11-03T07:33:42.906Z,10.87
2023-11-03T07:36:11.990Z,11.06
2023-11-03T07:38:40.674Z,11.25
2023-11-03T07:41:10.111Z,11.20
2023-11-03T07:43:38.294Z,11.16
2023-11-03T07:46:05.778Z,11.32
2023-11-03T07:48:33.308Z,11.44
2023-11-03T07:51:01.327Z,11.34
2023-11-03T07:53:28.825Z,11.28
2023-11-03T07:55:56.659Z,11.46
2023-11-03T07:58:24.134Z,11.53
2023-11-03T08:00:51.623Z,11.45
2023-11-03T08:03:20.253Z,11.42
2023-11-03T08:05:47.928Z,11.63
2023-11-03T08:08:15.688Z,11.68
2023-11-03T08:10:43.201Z,11.59
2023-11-03T08:13:11.172Z,11.57
2023-11-03T08:15:38.777Z,11.80
2023-11-03T08:18:07.385Z,11.89
2023-11-03T08:20:35.057Z,11.84
2023-11-03T08:23:02.606Z,11.79
2023-11-03T08:25:31.602Z,11.93
2023-11-03T08:27:59.380Z,12.12
2023-11-03T08:30:27.000Z,12.04
2023-11-03T08:32:55.091Z,11.97
2023-11-03T08:35:23.222Z,12.06
2023-11-03T08:37:53.773Z,12.25
2023-11-03T08:40:23.500Z,12.19
2023-11-03T08:42:51.782Z,12.13
2023-11-03T08:45:21.045Z,12.17
2023-11-03T08:47:50.452Z,12.38
2023-11-03T08:50:18.093Z,12.33
2023-11-03T08:52:51.562Z,12.24
2023-11-03T08:55:19.227Z,12.23
2023-11-03T08:57:46.688Z,12.43
2023-11-03T09:00:17.913Z,12.43
2023-11-03T09:02:47.748Z,12.37
2023-11-03T09:05:15.530Z,12.37
2023-11-03T09:07:43.886Z,12.56
2023-11-03T09:10:11.749Z,12.70
2023-11-03T09:12:41.844Z,12.62
2023-11-03T09:15:10.271Z,12.58
2023-11-03T09:17:37.984Z,12.60
2023-11-03T09:20:06.324Z,12.82
2023-11-03T09:22:36.695Z,12.84
2023-11-03T09:25:07.567Z,12.79
2023-11-03T09:27:35.463Z,12.78
2023-11-03T09:30:06.651Z,12.80
2023-11-03T09:32:34.637Z,12.84
2023-11-03T09:35:02.457Z,13.07
2023-11-03T09:37:30.200Z,13.04
2023-11-03T09:39:59.004Z,12.92
2023-11-03T09:42:26.632Z,12.84
2023-11-03T09:44:54.711Z,12.80
2023-11-03T09:47:22.205Z,12.78
2023-11-03T09:49:49.573Z,12.76
2023-11-03T09:52:17.276Z,12.74
2023-11-03T09:54:45.913Z,12.72
2023-11-03T09:57:13.684Z,12.85
2023-11-03T09:59:41.580Z,12.95
2023-11-03T10:02:21.925Z,12.88
2023-11-03T10:04:49.514Z,12.84
2023-11-03T10:07:18.415Z,12.84
2023-11-03T10:09:46.058Z,12.86
2023-11-03T10:12:17.234Z,12.88
2023-11-03T10:14:48.048Z,12.89
2023-11-03T10:17:18.503Z,12.88
2023-11-03T10:19:47.123Z,12.86
2023-11-03T10:22:15.123Z,12.92
2023-11-03T10:24:42.710Z,13.15
2023-11-03T10:27:13.637Z,13.16
2023-11-03T10:29:41.672Z,13.16
2023-11-03T10:32:12.099Z,13.17
2023-11-03T10:34:40.886Z,13.18
2023-11-03T10:37:10.874Z,13.20
2023-11-03T10:39:38.443Z,13.20
2023-11-03T10:42:06.829Z,13.19
2023-11-03T10:44:34.359Z,13.17
2023-11-03T10:47:08.065Z,13.15
2023-11-03T10:49:42.236Z,13.15
2023-11-03T10:52:17.996Z,13.09
2023-11-03T10:54:52.276Z,13.10
2023-11-03T10:57:38.042Z,13.09
2023-11-03T11:00:18.808Z,13.12
2023-11-03T11:03:11.592Z,13.36
2023-11-03T11:05:44.267Z,13.37
2023-11-03T11:08:12.098Z,13.37
2023-11-03T11:10:41.965Z,13.40
2023-11-03T11:13:19.013Z,13.44
2023-11-03T11:15:58.954Z,13.43
2023-11-03T11:18:34.534Z,13.45
2023-11-03T11:21:09.261Z,13.47
2023-11-03T11:23:38.432Z,13.48
2023-11-03T11:39:37.519Z,14.20
2023-11-03T11:42:05.071Z,14.48
2023-11-03T11:44:33.228Z,14.14
2023-11-03T11:47:02.310Z,13.90
2023-11-03T11:49:32.214Z,13.69
2023-11-03T11:52:01.310Z,13.54
2023-11-03T11:54:29.089Z,13.47
2023-11-03T11:56:56.663Z,13.45
2023-11-03T11:59:25.050Z,13.37
2023-11-03T12:01:53.342Z,13.27
2023-11-03T12:04:22.133Z,13.25
2023-11-03T12:06:50.094Z,13.23
2023-11-03T12:09:18.059Z,13.33
2023-11-03T12:11:46.060Z,13.37
2023-11-03T12:14:14.111Z,13.27
2023-11-03T12:16:41.610Z,13.19
2023-11-03T12:19:12.378Z,13.14
2023-11-03T12:21:43.115Z,13.10
2023-11-03T12:24:10.945Z,13.05
2023-11-03T12:26:41.104Z,13.05
2023-11-03T12:29:32.063Z,13.03
2023-11-03T12:32:01.456Z,13.00
2023-11-03T12:34:29.326Z,12.98
2023-11-03T12:37:00.087Z,13.18
2023-11-03T12:39:28.192Z,13.27
2023-11-03T12:42:11.184Z,13.21
2023-11-03T12:44:54.309Z,13.19
2023-11-03T12:47:46.176Z,13.19
2023-11-03T12:50:20.335Z,13.21
2023-11-03T12:52:57.228Z,13.22
2023-11-03T12:55:29.346Z,13.27
2023-11-03T12:57:58.340Z,13.33
2023-11-03T13:00:29.061Z,13.54
2023-11-03T13:02:56.989Z,13.60
2023-11-03T13:05:25.008Z,13.53
2023-11-03T13:07:56.033Z,13.50
2023-11-03T13:10:29.092Z,13.46
2023-11-03T13:12:57.299Z,13.38
2023-11-03T13:15:25.497Z,13.31
2023-11-03T13:17:54.453Z,13.25
2023-11-03T13:20:22.243Z,13.41
2023-11-03T13:22:50.974Z,13.39
2023-11-03T13:25:19.993Z,13.24
2023-11-03T13:27:48.032Z,13.12
2023-11-03T13:30:17.339Z,13.00
2023-11-03T13:32:51.468Z,13.06
2023-11-03T13:35:20.110Z,13.05
2023-11-03T13:37:48.034Z,12.90
2023-11-03T13:40:17.204Z,12.78
2023-11-03T13:42:44.902Z,12.70
2023-11-03T13:45:12.289Z,12.82
2023-11-03T13:47:39.922Z,12.81
2023-11-03T13:50:17.993Z,12.67
2023-11-03T13:52:49.754Z,12.58
2023-11-03T13:55:18.728Z,12.63
2023-11-03T13:57:46.221Z,12.74
2023-11-03T14:00:15.395Z,12.61
2023-11-03T14:02:43.137Z,12.48
2023-11-03T14:05:12.608Z,12.41
2023-11-03T14:07:40.834Z,12.55
2023-11-03T14:10:10.594Z,12.47
2023-11-03T14:12:42.500Z,12.30
2023-11-03T14:15:12.131Z,12.20
2023-11-03T14:17:43.623Z,12.31
2023-11-03T14:20:12.363Z,12.32
2023-11-03T14:22:42.729Z,12.15
2023-11-03T14:25:12.347Z,12.02
2023-11-03T14:27:40.230Z,12.17
2023-11-03T14:30:13.804Z,12.14
2023-11-03T14:32:42.754Z,11.96
2023-11-03T14:35:12.812Z,11.93
2023-11-03T14:37:42.613Z,12.07
2023-11-03T14:40:16.540Z,11.95
2023-11-03T14:42:48.777Z,11.81
2023-11-03T14:45:18.051Z,11.93
2023-11-03T14:47:45.996Z,11.88
2023-11-03T14:50:13.713Z,11.74
2023-11-03T14:52:41.284Z,11.69
2023-11-03T14:55:09.012Z,11.85
2023-11-03T14:57:37.396Z,11.76
2023-11-03T15:00:06.121Z,11.64
2023-11-03T15:02:33.893Z,11.76
2023-11-03T15:05:02.173Z,11.78
2023-11-03T15:07:31.240Z,11.62
2023-11-03T15:09:58.788Z,11.68
2023-11-03T15:12:26.439Z,11.73
2023-11-03T15:14:54.600Z,11.56
2023-11-03T15:17:22.583Z,11.57
2023-11-03T15:19:50.348Z,11.64
2023-11-03T15:22:17.707Z,11.58
2023-11-03T15:24:46.247Z,11.48
2023-11-03T15:27:13.665Z,11.53
2023-11-03T15:29:41.127Z,11.53
2023-11-03T15:32:08.794Z,11.38
2023-11-03T15:34:57.185Z,11.42
2023-11-03T15:37:25.800Z,11.45
2023-11-03T15:39:53.244Z,11.42
2023-11-03T15:42:23.146Z,11.29
2023-11-03T15:44:50.591Z,11.22
2023-11-03T15:47:20.921Z,11.27
2023-11-03T15:49:50.287Z,11.26
2023-11-03T15:52:17.659Z,11.09
2023-11-03T15:54:46.097Z,11.10
2023-11-03T15:57:13.509Z,11.15
2023-11-03T15:59:41.069Z,11.01
2023-11-03T16:02:10.216Z,10.96
2023-11-03T16:04:39.984Z,11.00
2023-11-03T16:07:10.337Z,10.98
2023-11-03T16:09:40.704Z,10.88
2023-11-03T16:12:10.858Z,10.87
2023-11-03T16:14:38.247Z,10.90
2023-11-03T16:17:05.747Z,10.86
2023-11-03T16:19:33.424Z,10.70
2023-11-03T16:22:01.036Z,10.75
2023-11-03T16:24:28.478Z,10.77
2023-11-03T16:26:56.264Z,10.76
2023-11-03T16:29:23.746Z,10.69
2023-11-03T16:31:51.244Z,10.66
2023-11-03T16:34:19.037Z,10.65
2023-11-03T16:36:46.765Z,10.63
2023-11-03T16:39:14.179Z,10.63
2023-11-03T16:41:41.687Z,10.62
2023-11-03T16:44:10.501Z,10.60
2023-11-03T16:46:38.936Z,10.58
2023-11-03T16:49:09.520Z,10.47
2023-11-03T16:51:44.410Z,10.43
2023-11-03T16:54:15.858Z,10.45
2023-11-03T16:56:43.390Z,10.46
2023-11-03T16:59:10.972Z,10.46
2023-11-03T17:01:39.922Z,10.48
2023-11-03T17:04:09.716Z,10.48
2023-11-03T17:06:37.420Z,10.51
2023-11-03T17:09:05.150Z,10.52
2023-11-03T17:11:32.682Z,10.50
2023-11-03T17:14:00.223Z,10.45
2023-11-03T17:16:27.747Z,10.32
2023-11-03T17:18:55.286Z,10.38
2023-11-03T17:21:23.462Z,10.40
2023-11-03T17:23:51.030Z,10.39
2023-11-03T17:26:19.756Z,10.33
2023-11-03T17:28:48.934Z,10.23
2023-11-03T17:31:17.455Z,10.25
2023-11-03T17:33:45.079Z,10.26
2023-11-03T17:36:12.507Z,10.27
2023-11-03T17:38:40.237Z,10.24
2023-11-03T17:41:07.756Z,10.24
2023-11-03T17:43:35.155Z,10.26
2023-11-03T17:46:02.935Z,10.25
2023-11-03T17:48:30.867Z,10.24
2023-11-03T17:50:58.929Z,10.24
2023-11-03T17:53:26.482Z,10.22
2023-11-03T17:55:54.655Z,10.10
2023-11-03T17:58:22.081Z,10.15
2023-11-03T18:00:49.840Z,10.19
2023-11-03T18:03:17.472Z,10.20
2023-11-03T18:05:48.488Z,10.18
2023-11-03T18:08:15.936Z,10.17
2023-11-03T18:10:43.456Z,10.15
2023-11-03T18:13:11.039Z,10.12
2023-11-03T18:15:38.626Z,10.11
2023-11-03T18:18:06.249Z,10.12
2023-11-03T18:20:39.814Z,10.13
2023-11-03T18:23:09.185Z,10.15
2023-11-03T18:25:37.142Z,10.15
2023-11-03T18:28:04.681Z,10.15
2023-11-03T18:30:34.084Z,10.05
2023-11-03T18:33:01.940Z,10.05
2023-11-03T18:35:29.643Z,10.11
2023-11-03T18:37:57.236Z,10.12
2023-11-03T18:40:28.416Z,10.13
2023-11-03T18:42:56.130Z,10.14
2023-11-03T18:45:25.978Z,10.15
2023-11-03T18:47:54.029Z,10.16
2023-11-03T18:52:59.064Z,10.24
2023-11-03T19:07:22.056Z,10.48
2023-11-03T19:08:24.374Z,10.40
2023-11-03T19:10:52.427Z,10.39
2023-11-03T19:13:21.837Z,10.50
2023-11-03T19:15:52.310Z,10.56
2023-11-03T19:18:21.651Z,10.59
2023-11-03T19:20:49.970Z,10.58
2023-11-03T19:23:17.472Z,10.61
2023-11-03T19:25:44.967Z,10.64
2023-11-03T19:28:15.936Z,10.67
2023-11-03T19:30:46.927Z,10.70
2023-11-03T19:33:15.166Z,10.71
2023-11-03T19:35:50.246Z,10.74
2023-11-03T19:38:21.032Z,10.79
2023-11-03T19:40:48.621Z,10.84
2023-11-03T19:43:16.622Z,10.85
2023-11-03T19:45:44.133Z,10.88
2023-11-03T19:48:12.575Z,10.80
2023-11-03T19:50:40.656Z,10.88
2023-11-03T19:53:08.349Z,10.94
2023-11-03T19:55:35.899Z,10.98
2023-11-03T19:58:03.635Z,11.01
2023-11-03T20:00:31.374Z,10.96
2023-11-03T20:02:59.088Z,10.91
2023-11-03T20:05:26.656Z,11.00
2023-11-03T20:07:54.159Z,11.05
2023-11-03T20:10:23.232Z,11.08
2023-11-03T20:12:50.844Z,11.11
2023-11-03T20:15:18.379Z,11.13
2023-11-03T20:17:45.950Z,11.09
2023-11-03T20:20:13.955Z,11.06
2023-11-03T20:22:41.495Z,11.17
2023-11-03T20:25:09.366Z,11.25
2023-11-03T20:27:37.234Z,11.29
2023-11-03T20:30:05.763Z,11.34
2023-11-03T20:32:34.414Z,11.29
2023-11-03T20:35:03.852Z,11.31
2023-11-03T20:37:31.477Z,11.37
2023-11-03T20:39:58.860Z,11.40
2023-11-03T20:42:27.547Z,11.42
2023-11-03T20:44:55.028Z,11.47
2023-11-03T20:47:22.527Z,11.46
2023-11-03T20:49:50.010Z,11.48
2023-11-03T20:52:17.870Z,11.45
2023-11-03T20:54:45.629Z,11.39
2023-11-03T20:57:14.365Z,11.49
2023-11-03T20:59:41.756Z,11.57
2023-11-03T21:02:09.167Z,11.58
2023-11-03T21:04:38.425Z,11.50
2023-11-03T21:07:05.914Z,11.59
2023-11-03T21:09:34.641Z,11.64
2023-11-03T21:12:02.118Z,11.66
2023-11-03T21:14:30.608Z,11.69
2023-11-03T21:16:59.852Z,11.70
2023-11-03T21:19:27.403Z,11.74
2023-11-03T21:21:55.057Z,11.78
2023-11-03T21:24:24.920Z,11.83
2023-11-03T21:26:52.686Z,11.80
2023-11-03T21:29:20.290Z,11.74
2023-11-03T21:31:51.965Z,11.84
2023-11-03T21:34:19.449Z,11.88
2023-11-03T21:36:47.702Z,11.89
2023-11-03T21:39:15.264Z,11.93
2023-11-03T21:41:46.555Z,11.92
2023-11-03T21:44:14.022Z,11.90
2023-11-03T21:46:41.595Z,12.03
2023-11-03T21:49:09.420Z,12.13
2023-11-03T21:51:39.810Z,12.19
2023-11-03T21:54:07.509Z,12.18
2023-11-03T21:56:34.958Z,12.17
2023-11-03T21:59:02.475Z,12.28
2023-11-03T22:01:30.061Z,12.32
2023-11-03T22:03:57.526Z,12.34
2023-11-03T22:06:25.046Z,12.31
2023-11-03T22:08:57.363Z,12.26
2023-11-03T22:11:31.767Z,12.38
2023-11-03T22:13:59.150Z,12.46
2023-11-03T22:16:26.865Z,12.49
2023-11-03T22:18:55.490Z,12.47
2023-11-03T22:21:23.856Z,12.45
2023-11-03T22:23:52.839Z,12.48
2023-11-03T22:26:24.635Z,12.43
2023-11-03T22:28:58.010Z,12.31
2023-11-03T22:31:26.871Z,12.35
2023-11-03T22:33:54.722Z,12.37
2023-11-03T22:36:23.843Z,12.35
2023-11-03T22:38:51.218Z,12.37
2023-11-03T22:41:18.620Z,12.32
2023-11-03T22:43:47.520Z,12.24
2023-11-03T22:46:14.916Z,12.32
2023-11-03T22:48:43.195Z,12.29
2023-11-03T22:51:10.829Z,12.24
2023-11-03T22:53:38.595Z,12.22
2023-11-03T22:56:07.134Z,12.22
2023-11-03T22:58:36.892Z,12.24
2023-11-03T23:01:04.487Z,12.16
2023-11-03T23:03:32.944Z,12.17
2023-11-03T23:06:00.558Z,12.22
2023-11-03T23:08:29.962Z,12.21
2023-11-03T23:10:57.390Z,12.19
2023-11-03T23:13:24.845Z,12.19
2023-11-03T23:15:52.319Z,12.19
2023-11-03T23:18:19.940Z,12.20
2023-11-03T23:20:47.601Z,12.19
2023-11-03T23:23:15.048Z,12.20
2023-11-03T23:25:42.528Z,12.20
2023-11-03T23:28:09.914Z,12.18
2023-11-03T23:30:37.274Z,12.18
2023-11-03T23:33:04.734Z,12.20
2023-11-03T23:35:32.244Z,12.25
2023-11-03T23:37:59.808Z,12.28
2023-11-03T23:40:27.398Z,12.29
2023-11-03T23:42:55.636Z,12.31
2023-11-03T23:46:49.561Z,12.08
2023-11-03T23:49:17.095Z,12.31
2023-11-03T23:51:44.645Z,12.37
2023-11-03T23:54:12.053Z,12.41
2023-11-03T23:56:39.462Z,12.45
2023-11-03T23:59:07.035Z,12.41
